sensor_id;sensor_type;location;lat;lon;timestamp;P1;durP1;ratioP1;P2;durP2;ratioP2
22863;SDS011;11599;49.882;8.680;2024-01-15T00:05:44;24.93;;;7.17;;
22863;SDS011;11599;49.882;8.680;2024-01-15T00:16:07;31.57;;;9.20;;
22863;SDS011;11599;49.882;8.680;2024-01-15T00:26:28;26.40;;;7.63;;
22863;SDS011;11599;49.882;8.680;2024-01-15T00:36:51;18.57;;;5.97;;
22863;SDS011;11599;49.882;8.680;2024-01-15T00:47:13;33.30;;;7.53;;
22863;SDS011;11599;49.882;8.680;2024-01-15T00:57:36;24.00;;;7.50;;
22863;SDS011;11599;49.882;8.680;2024-01-15T01:07:57;42.77;;;12.27;;
22863;SDS011;11599;49.882;8.680;2024-01-15T01:18:20;39.63;;;9.27;;
22863;SDS011;11599;49.882;8.680;2024-01-15T01:28:41;37.63;;;10.67;;
22863;SDS011;11599;49.882;8.680;2024-01-15T01:39:04;41.60;;;11.30;;
22863;SDS011;11599;49.882;8.680;2024-01-15T01:49:26;41.50;;;11.50;;
22863;SDS011;11599;49.882;8.680;2024-01-15T01:59:49;48.47;;;11.87;;
22863;SDS011;11599;49.882;8.680;2024-01-15T02:10:10;36.43;;;10.37;;
22863;SDS011;11599;49.882;8.680;2024-01-15T02:20:34;40.17;;;12.73;;
22863;SDS011;11599;49.882;8.680;2024-01-15T02:30:57;38.10;;;10.03;;
22863;SDS011;11599;49.882;8.680;2024-01-15T02:41:19;41.53;;;10.47;;
22863;SDS011;11599;49.882;8.680;2024-01-15T02:51:41;37.40;;;10.93;;
22863;SDS011;11599;49.882;8.680;2024-01-15T03:02:03;34.47;;;9.83;;
22863;SDS011;11599;49.882;8.680;2024-01-15T03:12:26;33.27;;;8.80;;
22863;SDS011;11599;49.882;8.680;2024-01-15T03:22:47;32.10;;;9.90;;
22863;SDS011;11599;49.882;8.680;2024-01-15T03:33:10;35.87;;;10.40;;
22863;SDS011;11599;49.882;8.680;2024-01-15T03:43:32;33.93;;;8.93;;
22863;SDS011;11599;49.882;8.680;2024-01-15T03:53:54;31.33;;;9.70;;
22863;SDS011;11599;49.882;8.680;2024-01-15T04:04:16;27.57;;;7.40;;
22863;SDS011;11599;49.882;8.680;2024-01-15T04:14:39;31.83;;;9.83;;
22863;SDS011;11599;49.882;8.680;2024-01-15T04:25:00;40.60;;;10.53;;
22863;SDS011;11599;49.882;8.680;2024-01-15T04:35:23;37.57;;;9.47;;
22863;SDS011;11599;49.882;8.680;2024-01-15T04:45:47;24.43;;;7.97;;
22863;SDS011;11599;49.882;8.680;2024-01-15T04:56:10;32.50;;;9.00;;
22863;SDS011;11599;49.882;8.680;2024-01-15T05:06:31;32.47;;;9.50;;
22863;SDS011;11599;49.882;8.680;2024-01-15T05:16:54;31.73;;;10.73;;
22863;SDS011;11599;49.882;8.680;2024-01-15T05:27:16;35.67;;;9.10;;
22863;SDS011;11599;49.882;8.680;2024-01-15T05:37:43;34.57;;;9.40;;
22863;SDS011;11599;49.882;8.680;2024-01-15T05:48:04;32.10;;;8.47;;
22863;SDS011;11599;49.882;8.680;2024-01-15T05:58:27;31.03;;;8.40;;
22863;SDS011;11599;49.882;8.680;2024-01-15T06:08:55;33.00;;;9.17;;
22863;SDS011;11599;49.882;8.680;2024-01-15T06:19:20;34.83;;;8.10;;
22863;SDS011;11599;49.882;8.680;2024-01-15T06:29:44;24.30;;;7.63;;
22863;SDS011;11599;49.882;8.680;2024-01-15T06:40:09;32.67;;;10.17;;
22863;SDS011;11599;49.882;8.680;2024-01-15T06:50:31;34.97;;;9.90;;
22863;SDS011;11599;49.882;8.680;2024-01-15T07:00:53;32.37;;;10.13;;
22863;SDS011;11599;49.882;8.680;2024-01-15T07:11:16;35.97;;;10.60;;
22863;SDS011;11599;49.882;8.680;2024-01-15T07:21:39;31.80;;;8.70;;
22863;SDS011;11599;49.882;8.680;2024-01-15T07:32:06;36.00;;;10.43;;
22863;SDS011;11599;49.882;8.680;2024-01-15T07:42:29;33.83;;;8.27;;
22863;SDS011;11599;49.882;8.680;2024-01-15T07:52:50;29.50;;;9.43;;
22863;SDS011;11599;49.882;8.680;2024-01-15T08:03:15;35.67;;;10.53;;
22863;SDS011;11599;49.882;8.680;2024-01-15T08:13:36;34.50;;;8.30;;
22863;SDS011;11599;49.882;8.680;2024-01-15T08:24:01;31.60;;;8.90;;
22863;SDS011;11599;49.882;8.680;2024-01-15T08:34:23;38.20;;;10.03;;
22863;SDS011;11599;49.882;8.680;2024-01-15T08:44:45;29.43;;;8.10;;
22863;SDS011;11599;49.882;8.680;2024-01-15T08:55:07;30.37;;;9.77;;
22863;SDS011;11599;49.882;8.680;2024-01-15T09:05:30;25.60;;;9.00;;
22863;SDS011;11599;49.882;8.680;2024-01-15T09:15:52;26.67;;;8.60;;
22863;SDS011;11599;49.882;8.680;2024-01-15T09:26:14;37.63;;;10.53;;
22863;SDS011;11599;49.882;8.680;2024-01-15T09:36:38;31.50;;;9.83;;
22863;SDS011;11599;49.882;8.680;2024-01-15T09:47:02;33.87;;;10.00;;
22863;SDS011;11599;49.882;8.680;2024-01-15T09:57:23;31.97;;;9.57;;
22863;SDS011;11599;49.882;8.680;2024-01-15T10:07:47;36.13;;;11.03;;
22863;SDS011;11599;49.882;8.680;2024-01-15T10:18:10;27.77;;;10.07;;
22863;SDS011;11599;49.882;8.680;2024-01-15T10:28:33;27.43;;;10.63;;
22863;SDS011;11599;49.882;8.680;2024-01-15T10:38:56;35.77;;;11.27;;
22863;SDS011;11599;49.882;8.680;2024-01-15T10:49:21;32.60;;;10.53;;
22863;SDS011;11599;49.882;8.680;2024-01-15T10:59:44;28.37;;;9.40;;
22863;SDS011;11599;49.882;8.680;2024-01-15T11:10:08;31.20;;;10.43;;
22863;SDS011;11599;49.882;8.680;2024-01-15T11:31:28;24.53;;;8.97;;
22863;SDS011;11599;49.882;8.680;2024-01-15T11:42:02;26.43;;;8.70;;
22863;SDS011;11599;49.882;8.680;2024-01-15T11:52:26;21.93;;;8.77;;
22863;SDS011;11599;49.882;8.680;2024-01-15T12:02:48;29.33;;;8.63;;
22863;SDS011;11599;49.882;8.680;2024-01-15T12:13:12;22.80;;;7.97;;
22863;SDS011;11599;49.882;8.680;2024-01-15T12:23:34;18.83;;;7.73;;
22863;SDS011;11599;49.882;8.680;2024-01-15T12:33:56;20.00;;;7.73;;
22863;SDS011;11599;49.882;8.680;2024-01-15T12:44:19;19.73;;;7.93;;
22863;SDS011;11599;49.882;8.680;2024-01-15T12:54:42;19.43;;;7.33;;
22863;SDS011;11599;49.882;8.680;2024-01-15T13:05:03;17.30;;;6.83;;
22863;SDS011;11599;49.882;8.680;2024-01-15T13:15:28;17.17;;;6.47;;
22863;SDS011;11599;49.882;8.680;2024-01-15T13:25:49;16.30;;;6.57;;
22863;SDS011;11599;49.882;8.680;2024-01-15T13:36:12;15.47;;;5.63;;
22863;SDS011;11599;49.882;8.680;2024-01-15T13:46:33;14.63;;;5.30;;
22863;SDS011;11599;49.882;8.680;2024-01-15T13:56:57;12.87;;;4.83;;
22863;SDS011;11599;49.882;8.680;2024-01-15T14:07:19;12.80;;;5.10;;
22863;SDS011;11599;49.882;8.680;2024-01-15T14:17:42;15.40;;;5.53;;
22863;SDS011;11599;49.882;8.680;2024-01-15T14:28:04;11.90;;;4.53;;
22863;SDS011;11599;49.882;8.680;2024-01-15T14:38:27;15.40;;;4.80;;
22863;SDS011;11599;49.882;8.680;2024-01-15T14:48:49;10.73;;;4.87;;
22863;SDS011;11599;49.882;8.680;2024-01-15T14:59:12;9.40;;;3.97;;
22863;SDS011;11599;49.882;8.680;2024-01-15T15:09:34;8.67;;;3.77;;
22863;SDS011;11599;49.882;8.680;2024-01-15T15:19:59;10.20;;;4.00;;
22863;SDS011;11599;49.882;8.680;2024-01-15T15:30:24;12.83;;;3.77;;
22863;SDS011;11599;49.882;8.680;2024-01-15T15:40:47;8.10;;;3.17;;
22863;SDS011;11599;49.882;8.680;2024-01-15T15:51:09;9.07;;;2.57;;
22863;SDS011;11599;49.882;8.680;2024-01-15T16:01:32;9.67;;;2.83;;
22863;SDS011;11599;49.882;8.680;2024-01-15T16:11:53;9.47;;;2.90;;
22863;SDS011;11599;49.882;8.680;2024-01-15T16:22:16;7.23;;;2.80;;
22863;SDS011;11599;49.882;8.680;2024-01-15T16:32:38;4.47;;;2.27;;
22863;SDS011;11599;49.882;8.680;2024-01-15T16:43:01;10.30;;;2.70;;
22863;SDS011;11599;49.882;8.680;2024-01-15T16:53:22;7.10;;;2.10;;
22863;SDS011;11599;49.882;8.680;2024-01-15T17:03:45;9.23;;;2.40;;
22863;SDS011;11599;49.882;8.680;2024-01-15T17:14:07;6.97;;;2.43;;
22863;SDS011;11599;49.882;8.680;2024-01-15T17:24:43;9.53;;;2.73;;
22863;SDS011;11599;49.882;8.680;2024-01-15T17:35:05;4.53;;;1.93;;
22863;SDS011;11599;49.882;8.680;2024-01-15T17:45:28;9.40;;;2.07;;
22863;SDS011;11599;49.882;8.680;2024-01-15T17:55:49;12.40;;;2.70;;
22863;SDS011;11599;49.882;8.680;2024-01-15T18:06:12;4.67;;;1.90;;
22863;SDS011;11599;49.882;8.680;2024-01-15T18:16:33;5.63;;;2.70;;
22863;SDS011;11599;49.882;8.680;2024-01-15T18:26:58;7.07;;;1.77;;
22863;SDS011;11599;49.882;8.680;2024-01-15T18:37:23;9.03;;;1.90;;
22863;SDS011;11599;49.882;8.680;2024-01-15T18:47:49;3.57;;;1.73;;
22863;SDS011;11599;49.882;8.680;2024-01-15T18:58:10;5.03;;;2.23;;
22863;SDS011;11599;49.882;8.680;2024-01-15T19:08:35;6.73;;;2.17;;
22863;SDS011;11599;49.882;8.680;2024-01-15T19:18:57;9.63;;;2.40;;
22863;SDS011;11599;49.882;8.680;2024-01-15T19:29:20;5.23;;;2.00;;
22863;SDS011;11599;49.882;8.680;2024-01-15T19:39:41;8.17;;;1.53;;
22863;SDS011;11599;49.882;8.680;2024-01-15T19:50:05;8.67;;;2.20;;
22863;SDS011;11599;49.882;8.680;2024-01-15T20:00:27;7.87;;;1.90;;
22863;SDS011;11599;49.882;8.680;2024-01-15T20:10:50;8.37;;;2.50;;
22863;SDS011;11599;49.882;8.680;2024-01-15T20:21:14;5.73;;;2.00;;
22863;SDS011;11599;49.882;8.680;2024-01-15T20:31:36;6.85;;;2.65;;
22863;SDS011;11599;49.882;8.680;2024-01-15T20:41:58;6.00;;;2.40;;
22863;SDS011;11599;49.882;8.680;2024-01-15T20:52:21;3.97;;;1.80;;
22863;SDS011;11599;49.882;8.680;2024-01-15T21:02:42;5.40;;;2.10;;
22863;SDS011;11599;49.882;8.680;2024-01-15T21:13:09;4.70;;;2.27;;
22863;SDS011;11599;49.882;8.680;2024-01-15T21:23:30;5.70;;;2.57;;
22863;SDS011;11599;49.882;8.680;2024-01-15T21:33:53;10.83;;;2.90;;
22863;SDS011;11599;49.882;8.680;2024-01-15T21:44:16;5.90;;;2.87;;
22863;SDS011;11599;49.882;8.680;2024-01-15T21:54:39;11.07;;;2.90;;
22863;SDS011;11599;49.882;8.680;2024-01-15T22:05:00;10.13;;;3.20;;
22863;SDS011;11599;49.882;8.680;2024-01-15T22:15:23;7.57;;;2.90;;
22863;SDS011;11599;49.882;8.680;2024-01-15T22:25:46;7.43;;;3.00;;
22863;SDS011;11599;49.882;8.680;2024-01-15T22:36:09;11.67;;;3.07;;
22863;SDS011;11599;49.882;8.680;2024-01-15T22:46:30;9.30;;;3.30;;
22863;SDS011;11599;49.882;8.680;2024-01-15T22:56:53;15.47;;;3.03;;
22863;SDS011;11599;49.882;8.680;2024-01-15T23:07:14;11.73;;;3.37;;
22863;SDS011;11599;49.882;8.680;2024-01-15T23:17:37;7.13;;;3.23;;
22863;SDS011;11599;49.882;8.680;2024-01-15T23:27:59;8.23;;;3.30;;
22863;SDS011;11599;49.882;8.680;2024-01-15T23:38:21;7.67;;;3.30;;
22863;SDS011;11599;49.882;8.680;2024-01-15T23:48:43;8.90;;;3.40;;
22863;SDS011;11599;49.882;8.680;2024-01-15T23:59:06;10.37;;;3.50;;
